createdAt,value
2022-09-24T00:01:46.785Z,2.10
2022-09-24T00:04:13.635Z,1.85
2022-09-24T00:06:44.636Z,2.03
2022-09-24T00:09:22.160Z,2.10
2022-09-24T00:11:53.304Z,2.00
2022-09-24T00:14:20.417Z,2.05
2022-09-24T00:16:47.233Z,1.90
2022-09-24T00:19:14.601Z,2.13
2022-09-24T00:21:42.681Z,2.10
2022-09-24T00:24:33.703Z,1.90
2022-09-24T00:27:02.804Z,1.85
2022-09-24T00:29:32.923Z,2.10
2022-09-24T00:31:59.841Z,2.00
2022-09-24T00:34:26.776Z,2.13
2022-09-24T00:36:54.104Z,2.20
2022-09-24T00:39:20.836Z,2.13
2022-09-24T00:41:48.992Z,2.05
2022-09-24T00:44:45.032Z,2.08
2022-09-24T00:47:34.906Z,1.98
2022-09-24T00:50:22.505Z,2.10
2022-09-24T00:52:56.701Z,2.00
2022-09-24T00:55:24.966Z,1.75
2022-09-24T00:57:56.750Z,1.98
2022-09-24T01:00:23.990Z,1.80
2022-09-24T01:02:56.623Z,1.95
2022-09-24T01:05:23.679Z,1.92
2022-09-24T01:07:50.519Z,1.88
2022-09-24T01:10:43.109Z,2.03
2022-09-24T01:13:26.879Z,1.90
2022-09-24T01:16:06.461Z,2.00
2022-09-24T01:19:19.656Z,2.05
2022-09-24T01:21:57.703Z,1.80
2022-09-24T01:24:58.932Z,1.83
2022-09-24T01:27:44.374Z,2.03
2022-09-24T01:30:15.104Z,2.10
2022-09-24T01:32:54.239Z,2.05
2022-09-24T01:35:30.207Z,2.08
2022-09-24T01:38:03.515Z,1.90
2022-09-24T01:40:31.369Z,2.10
2022-09-24T01:42:59.942Z,2.08
2022-09-24T01:45:31.748Z,2.03
2022-09-24T01:48:04.284Z,2.20
2022-09-24T01:50:44.906Z,2.20
2022-09-24T01:53:19.062Z,2.13
2022-09-24T01:55:50.590Z,2.28
2022-09-24T01:58:28.114Z,2.33
2022-09-24T02:01:03.277Z,2.03
2022-09-24T02:03:43.219Z,2.03
2022-09-24T02:06:19.339Z,2.10
2022-09-24T02:08:48.444Z,2.17
2022-09-24T02:11:22.461Z,2.17
2022-09-24T02:14:14.143Z,2.07
2022-09-24T02:16:47.641Z,1.90
2022-09-24T02:19:20.822Z,1.80
2022-09-24T02:21:48.235Z,2.00
2022-09-24T02:24:20.029Z,1.85
2022-09-24T02:26:47.510Z,2.00
2022-09-24T02:29:14.946Z,2.20
2022-09-24T02:31:46.758Z,2.00
2022-09-24T02:34:22.600Z,2.03
2022-09-24T02:36:50.566Z,2.20
2022-09-24T02:39:17.921Z,2.00
2022-09-24T02:41:49.674Z,2.10
2022-09-24T02:44:17.656Z,1.77
2022-09-24T02:46:45.756Z,2.33
2022-09-24T02:49:14.386Z,2.05
2022-09-24T02:51:42.595Z,2.10
2022-09-24T02:54:10.672Z,2.00
2022-09-24T02:56:37.823Z,2.08
2022-09-24T02:59:04.722Z,1.90
2022-09-24T03:01:33.774Z,2.00
2022-09-24T03:04:01.395Z,2.05
2022-09-24T03:06:28.949Z,1.88
2022-09-24T03:08:56.444Z,1.90
2022-09-24T03:11:23.813Z,1.73
2022-09-24T03:13:51.699Z,1.90
2022-09-24T03:16:19.407Z,1.75
2022-09-24T03:18:49.799Z,1.92
2022-09-24T03:21:19.347Z,1.90
2022-09-24T03:23:46.799Z,1.88
2022-09-24T03:26:15.674Z,1.90
2022-09-24T03:28:42.584Z,1.80
2022-09-24T03:31:09.570Z,2.00
2022-09-24T03:33:37.641Z,1.88
2022-09-24T03:36:07.924Z,2.08
2022-09-24T03:38:36.547Z,1.90
2022-09-24T03:41:04.147Z,2.00
2022-09-24T03:43:39.107Z,1.90
2022-09-24T03:46:07.314Z,1.80
2022-09-24T03:48:36.588Z,1.90
2022-09-24T03:51:14.016Z,1.85
2022-09-24T03:53:40.879Z,2.00
2022-09-24T03:56:08.606Z,2.10
2022-09-24T03:58:37.905Z,1.90
2022-09-24T04:01:10.291Z,2.00
2022-09-24T04:03:37.763Z,2.00
2022-09-24T04:06:05.644Z,1.70
2022-09-24T04:08:32.944Z,2.03
2022-09-24T04:10:59.926Z,2.00
2022-09-24T04:13:27.077Z,1.83
2022-09-24T04:15:54.992Z,1.83
2022-09-24T04:18:22.540Z,2.00
2022-09-24T04:20:49.385Z,1.95
2022-09-24T04:23:16.299Z,1.90
2022-09-24T04:25:43.930Z,2.08
2022-09-24T04:28:11.999Z,2.22
2022-09-24T04:30:38.789Z,2.00
2022-09-24T04:33:07.001Z,2.20
2022-09-24T04:35:38.360Z,2.13
2022-09-24T04:38:05.636Z,2.03
2022-09-24T04:40:32.994Z,2.05
2022-09-24T04:43:00.225Z,1.95
2022-09-24T04:45:27.087Z,2.00
2022-09-24T04:47:57.510Z,1.92
2022-09-24T04:50:29.273Z,2.00
2022-09-24T04:52:56.451Z,1.80
2022-09-24T04:55:27.840Z,2.17
2022-09-24T04:57:57.874Z,1.90
2022-09-24T05:00:26.701Z,1.77
2022-09-24T05:03:03.550Z,2.08
2022-09-24T05:05:32.316Z,1.77
2022-09-24T05:07:59.746Z,2.10
2022-09-24T05:10:27.266Z,2.00
2022-09-24T05:12:54.831Z,1.92
2022-09-24T05:15:22.158Z,1.85
2022-09-24T05:17:49.238Z,1.77
2022-09-24T05:20:16.958Z,1.60
2022-09-24T05:22:49.435Z,2.05
2022-09-24T05:25:17.987Z,1.95
2022-09-24T05:27:52.137Z,1.90
2022-09-24T05:30:20.836Z,1.90
2022-09-24T05:32:51.971Z,2.08
2022-09-24T05:35:20.171Z,1.80
2022-09-24T05:37:49.599Z,1.73
2022-09-24T05:40:35.480Z,1.90
2022-09-24T05:43:03.095Z,1.90
2022-09-24T05:45:31.194Z,2.10
2022-09-24T05:47:59.976Z,1.88
2022-09-24T05:50:27.455Z,1.98
2022-09-24T05:52:55.028Z,2.05
2022-09-24T05:55:22.004Z,2.03
2022-09-24T05:57:49.139Z,1.80
2022-09-24T06:00:24.371Z,2.13
2022-09-24T06:02:51.683Z,2.38
2022-09-24T06:05:25.661Z,1.92
2022-09-24T06:07:52.463Z,2.05
2022-09-24T06:10:19.218Z,2.10
2022-09-24T06:12:46.926Z,1.83
2022-09-24T06:15:14.497Z,1.70
2022-09-24T06:17:41.295Z,1.70
2022-09-24T06:20:08.437Z,2.20
2022-09-24T06:22:35.340Z,1.80
2022-09-24T06:25:02.211Z,1.90
2022-09-24T06:27:29.037Z,1.95
2022-09-24T06:29:56.010Z,2.08
2022-09-24T06:32:24.267Z,1.92
2022-09-24T06:34:54.439Z,2.00
2022-09-24T06:37:25.302Z,2.20
2022-09-24T06:39:52.092Z,2.05
2022-09-24T06:42:20.261Z,2.00
2022-09-24T06:44:47.034Z,2.30
2022-09-24T06:47:13.759Z,2.45
2022-09-24T06:49:41.448Z,2.60
2022-09-24T06:52:08.261Z,3.63
2022-09-24T06:54:35.046Z,2.70
2022-09-24T06:57:02.199Z,2.97
2022-09-24T06:59:29.417Z,2.67
2022-09-24T07:01:56.290Z,2.50
2022-09-24T07:04:23.005Z,2.38
2022-09-24T07:07:08.369Z,2.30
2022-09-24T07:09:36.419Z,1.98
2022-09-24T07:12:05.378Z,2.10
2022-09-24T07:14:32.092Z,2.47
2022-09-24T07:16:58.820Z,1.88
2022-09-24T07:19:29.005Z,1.85
2022-09-24T07:21:56.041Z,1.80
2022-09-24T07:24:22.892Z,1.75
2022-09-24T07:26:49.669Z,1.60
2022-09-24T07:29:16.464Z,1.80
2022-09-24T07:31:43.360Z,1.95
2022-09-24T07:34:10.303Z,1.90
2022-09-24T07:36:37.135Z,1.90
2022-09-24T07:39:03.998Z,1.80
2022-09-24T07:41:30.928Z,1.80
2022-09-24T07:43:57.880Z,1.42
2022-09-24T07:46:24.915Z,1.90
2022-09-24T07:48:57.951Z,1.70
2022-09-24T07:51:27.545Z,1.40
2022-09-24T07:53:55.736Z,1.30
2022-09-24T07:56:23.680Z,1.30
2022-09-24T07:58:51.977Z,1.20
2022-09-24T08:01:19.923Z,1.65
2022-09-24T08:03:47.257Z,1.40
2022-09-24T08:06:14.269Z,1.40
2022-09-24T08:08:41.076Z,1.40
2022-09-24T08:11:10.676Z,1.17
2022-09-24T08:13:37.918Z,1.58
2022-09-24T08:16:05.201Z,1.52
2022-09-24T08:18:33.213Z,1.27
2022-09-24T08:21:05.133Z,1.55
2022-09-24T08:23:33.430Z,1.60
2022-09-24T08:26:00.992Z,1.85
2022-09-24T08:28:28.528Z,1.77
2022-09-24T08:31:00.378Z,1.60
2022-09-24T08:33:28.397Z,1.65
2022-09-24T08:35:55.237Z,2.08
2022-09-24T08:38:22.239Z,1.80
2022-09-24T08:40:58.519Z,1.88
2022-09-24T08:43:59.035Z,2.05
2022-09-24T08:46:56.596Z,1.92
2022-09-24T08:49:40.579Z,1.90
2022-09-24T08:52:27.137Z,2.33
2022-09-24T08:54:55.885Z,2.80
2022-09-24T08:57:22.840Z,2.25
2022-09-24T08:59:53.349Z,2.80
2022-09-24T09:02:43.972Z,2.20
2022-09-24T09:05:59.941Z,3.10
2022-09-24T09:11:30.563Z,2.65
2022-09-24T09:14:06.304Z,3.05
2022-09-24T09:16:46.213Z,2.75
2022-09-24T09:19:15.607Z,2.85
2022-09-24T09:21:46.196Z,4.18
2022-09-24T09:24:38.215Z,3.10
2022-09-24T09:27:14.755Z,2.03
2022-09-24T09:29:44.321Z,2.50
2022-09-24T09:32:40.408Z,1.63
2022-09-24T09:35:29.688Z,2.10
2022-09-24T09:38:20.201Z,1.65
2022-09-24T09:41:02.841Z,2.40
2022-09-24T09:43:30.273Z,1.70
2022-09-24T09:46:22.956Z,1.85
2022-09-24T09:48:54.231Z,1.70
2022-09-24T09:51:26.011Z,1.83
2022-09-24T09:53:55.579Z,1.70
2022-09-24T09:56:34.233Z,1.70
2022-09-24T09:59:27.216Z,1.80
2022-09-24T10:01:57.583Z,1.88
2022-09-24T10:04:34.479Z,1.77
2022-09-24T10:07:17.379Z,1.70
2022-09-24T10:09:45.625Z,2.10
2022-09-24T10:12:15.372Z,1.48
2022-09-24T10:14:42.938Z,1.80
2022-09-24T10:17:18.827Z,1.60
2022-09-24T10:19:50.811Z,1.35
2022-09-24T10:22:24.917Z,1.88
2022-09-24T10:24:52.987Z,2.08
2022-09-24T10:27:29.408Z,1.60
2022-09-24T10:30:15.533Z,1.20
2022-09-24T10:32:42.437Z,2.03
2022-09-24T10:35:26.675Z,1.85
2022-09-24T10:40:28.461Z,1.80
2022-09-24T10:43:00.395Z,1.58
2022-09-24T10:45:53.208Z,1.60
2022-09-24T10:48:35.926Z,1.40
2022-09-24T10:51:29.873Z,1.88
2022-09-24T10:54:28.542Z,2.03
2022-09-24T10:57:00.033Z,2.00
2022-09-24T10:59:50.100Z,1.60
2022-09-24T11:02:31.880Z,1.90
2022-09-24T11:05:05.356Z,1.80
2022-09-24T11:07:41.522Z,1.88
2022-09-24T11:10:14.114Z,1.65
2022-09-24T11:13:17.525Z,1.60
2022-09-24T11:16:09.101Z,2.70
2022-09-24T11:18:58.877Z,2.08
2022-09-24T11:21:34.371Z,2.65
2022-09-24T11:24:35.422Z,2.22
2022-09-24T11:27:34.859Z,2.17
2022-09-24T11:30:12.133Z,1.65
2022-09-24T11:32:59.438Z,3.17
2022-09-24T11:35:38.307Z,2.78
2022-09-24T11:38:13.221Z,2.00
2022-09-24T11:40:53.800Z,2.20
2022-09-24T11:43:33.839Z,1.60
2022-09-24T11:46:49.602Z,2.85
2022-09-24T11:49:43.974Z,2.75
2022-09-24T11:52:20.015Z,2.30
2022-09-24T11:55:16.309Z,3.20
2022-09-24T11:57:50.845Z,2.13
2022-09-24T12:00:20.241Z,1.58
2022-09-24T12:02:55.245Z,1.95
2022-09-24T12:05:49.703Z,1.45
2022-09-24T12:08:27.648Z,1.30
2022-09-24T12:11:13.929Z,2.28
2022-09-24T12:14:15.227Z,1.95
2022-09-24T12:16:45.732Z,2.10
2022-09-24T12:19:18.803Z,1.42
2022-09-24T12:21:47.844Z,2.65
2022-09-24T12:24:39.630Z,2.80
2022-09-24T12:27:16.458Z,2.45
2022-09-24T12:30:04.441Z,3.10
2022-09-24T12:32:57.765Z,2.40
2022-09-24T12:35:37.502Z,2.00
2022-09-24T12:38:16.278Z,2.40
2022-09-24T12:41:01.277Z,1.98
2022-09-24T12:43:33.885Z,2.70
2022-09-24T12:46:03.481Z,2.90
2022-09-24T12:48:36.165Z,2.03
2022-09-24T12:51:06.566Z,2.05
2022-09-24T12:53:54.641Z,2.28
2022-09-24T12:56:26.869Z,2.03
2022-09-24T12:58:54.306Z,1.90
2022-09-24T13:01:24.327Z,2.10
2022-09-24T13:04:25.464Z,2.20
2022-09-24T13:06:53.031Z,2.20
2022-09-24T13:09:36.974Z,2.00
2022-09-24T13:12:19.365Z,1.60
2022-09-24T13:14:56.749Z,1.85
2022-09-24T13:17:24.298Z,2.03
2022-09-24T13:19:58.057Z,3.00
2022-09-24T13:22:37.945Z,2.53
2022-09-24T13:25:07.939Z,2.47
2022-09-24T13:27:38.240Z,2.80
2022-09-24T13:30:21.113Z,2.80
2022-09-24T13:32:59.176Z,2.35
2022-09-24T13:35:33.947Z,2.70
2022-09-24T13:40:41.024Z,2.40
2022-09-24T13:43:25.272Z,2.10
2022-09-24T13:45:52.689Z,2.13
2022-09-24T13:48:35.511Z,2.22
2022-09-24T13:51:05.377Z,2.20
2022-09-24T13:53:49.525Z,2.20
2022-09-24T13:56:18.743Z,2.00
2022-09-24T13:58:46.735Z,1.70
2022-09-24T14:01:29.903Z,1.52
2022-09-24T14:04:07.068Z,1.90
2022-09-24T14:06:50.851Z,2.38
2022-09-24T14:09:28.708Z,1.98
2022-09-24T14:11:58.626Z,1.92
2022-09-24T14:14:28.430Z,2.10
2022-09-24T14:17:09.374Z,2.45
2022-09-24T14:19:36.244Z,1.88
2022-09-24T14:22:05.517Z,2.45
2022-09-24T14:24:39.525Z,1.70
2022-09-24T14:27:09.958Z,2.00
2022-09-24T14:29:48.624Z,1.60
2022-09-24T14:32:33.229Z,2.20
2022-09-24T14:35:21.128Z,2.33
2022-09-24T14:38:12.515Z,2.42
2022-09-24T14:40:45.172Z,1.40
2022-09-24T14:43:31.227Z,1.23
2022-09-24T14:46:37.725Z,1.40
2022-09-24T14:49:20.621Z,1.45
2022-09-24T14:51:54.837Z,2.10
2022-09-24T14:54:34.465Z,1.63
2022-09-24T14:57:10.831Z,1.60
2022-09-24T14:59:39.751Z,1.80
2022-09-24T15:02:22.560Z,1.25
2022-09-24T15:04:53.307Z,1.70
2022-09-24T15:07:26.305Z,1.50
2022-09-24T15:09:59.063Z,1.40
2022-09-24T15:12:31.340Z,1.67
2022-09-24T15:14:59.867Z,1.38
2022-09-24T15:17:35.088Z,1.67
2022-09-24T15:20:03.485Z,1.70
2022-09-24T15:22:31.461Z,1.60
2022-09-24T15:25:01.950Z,1.50
2022-09-24T15:27:34.009Z,1.40
2022-09-24T15:30:02.413Z,1.30
2022-09-24T15:32:31.552Z,1.33
2022-09-24T15:35:02.076Z,0.98
2022-09-24T15:37:29.671Z,1.23
2022-09-24T15:40:00.179Z,1.30
2022-09-24T15:42:27.363Z,1.10
2022-09-24T15:44:54.610Z,1.38
2022-09-24T15:47:21.468Z,1.13
2022-09-24T15:49:48.222Z,1.17
2022-09-24T15:52:16.961Z,1.25
2022-09-24T15:54:43.704Z,1.20
2022-09-24T15:57:12.749Z,1.45
2022-09-24T15:59:40.387Z,1.40
2022-09-24T16:02:18.461Z,1.50
2022-09-24T16:04:45.354Z,1.58
2022-09-24T16:07:12.157Z,1.10
2022-09-24T16:09:39.172Z,1.10
2022-09-24T16:12:05.907Z,1.10
2022-09-24T16:14:32.867Z,1.08
2022-09-24T16:16:59.746Z,1.20
2022-09-24T16:19:26.569Z,1.10
2022-09-24T16:21:53.374Z,1.17
2022-09-24T16:24:20.152Z,0.93
2022-09-24T16:26:46.930Z,0.95
2022-09-24T16:29:13.783Z,0.80
2022-09-24T16:31:40.633Z,0.93
2022-09-24T16:34:07.498Z,1.02
2022-09-24T16:36:34.288Z,0.90
2022-09-24T16:39:01.146Z,1.05
2022-09-24T16:41:34.129Z,0.95
2022-09-24T16:44:01.675Z,0.80
2022-09-24T16:46:28.514Z,1.00
2022-09-24T16:48:55.289Z,1.08
2022-09-24T16:51:22.419Z,1.05
2022-09-24T16:53:55.251Z,1.05
2022-09-24T16:56:22.630Z,1.00
2022-09-24T16:58:49.713Z,0.80
2022-09-24T17:01:18.692Z,0.95
2022-09-24T17:03:58.060Z,1.00
2022-09-24T17:06:27.986Z,1.13
2022-09-24T17:09:13.514Z,1.00
2022-09-24T17:11:40.997Z,1.00
2022-09-24T17:14:10.361Z,1.10
2022-09-24T17:16:37.789Z,1.00
2022-09-24T17:19:04.965Z,1.00
2022-09-24T17:21:31.767Z,1.10
2022-09-24T17:23:58.527Z,1.00
2022-09-24T17:26:25.707Z,1.00
2022-09-24T17:28:54.305Z,1.10
2022-09-24T17:31:23.407Z,1.02
2022-09-24T17:33:56.972Z,1.10
2022-09-24T17:36:25.439Z,1.00
2022-09-24T17:38:52.797Z,1.10
2022-09-24T17:41:20.772Z,1.10
2022-09-24T17:43:48.212Z,1.15
2022-09-24T17:46:22.211Z,1.25
2022-09-24T17:48:53.728Z,1.25
2022-09-24T17:51:23.442Z,1.05
2022-09-24T17:53:52.990Z,1.02
2022-09-24T17:56:22.551Z,1.30
2022-09-24T17:58:50.099Z,1.50
2022-09-24T18:01:29.961Z,1.80
2022-09-24T18:03:58.499Z,1.95
2022-09-24T18:06:31.941Z,2.10
2022-09-24T18:09:00.402Z,2.10
2022-09-24T18:11:29.878Z,1.58
2022-09-24T18:13:58.896Z,1.70
2022-09-24T18:16:29.319Z,1.80
2022-09-24T18:18:57.073Z,1.85
2022-09-24T18:21:24.588Z,1.50
2022-09-24T18:23:55.673Z,1.52
2022-09-24T18:26:32.437Z,2.00
2022-09-24T18:29:01.180Z,2.00
2022-09-24T18:31:29.813Z,1.80
2022-09-24T18:34:03.867Z,1.90
2022-09-24T18:36:31.319Z,1.60
2022-09-24T18:38:58.140Z,1.60
2022-09-24T18:41:27.390Z,1.60
2022-09-24T18:43:55.561Z,1.30
2022-09-24T18:46:23.852Z,1.40
2022-09-24T18:48:54.220Z,1.60
2022-09-24T18:51:29.303Z,1.60
2022-09-24T18:54:05.940Z,1.40
2022-09-24T18:56:33.509Z,1.30
2022-09-24T18:59:09.693Z,1.25
2022-09-24T19:01:38.432Z,1.13
2022-09-24T19:04:06.321Z,1.40
2022-09-24T19:06:35.309Z,1.20
2022-09-24T19:09:02.410Z,1.20
2022-09-24T19:11:45.760Z,1.30
2022-09-24T19:14:14.931Z,1.20
2022-09-24T19:16:41.880Z,1.40
2022-09-24T19:19:09.399Z,1.45
2022-09-24T19:21:36.431Z,1.40
2022-09-24T19:24:05.895Z,1.33
2022-09-24T19:26:34.847Z,1.60
2022-09-24T19:29:02.305Z,1.63
2022-09-24T19:31:32.696Z,1.50
2022-09-24T19:34:04.314Z,1.73
2022-09-24T19:36:37.439Z,1.80
2022-09-24T19:39:14.327Z,1.73
2022-09-24T19:41:41.562Z,1.70
2022-09-24T19:44:11.084Z,1.77
2022-09-24T19:46:38.636Z,1.60
2022-09-24T19:49:06.362Z,2.35
2022-09-24T19:51:35.013Z,2.35
2022-09-24T19:54:04.471Z,2.50
2022-09-24T19:56:32.087Z,1.88
2022-09-24T19:59:00.593Z,1.92
2022-09-24T20:01:30.436Z,1.70
2022-09-24T20:04:00.268Z,1.98
2022-09-24T20:06:31.440Z,2.00
2022-09-24T20:08:59.228Z,2.08
2022-09-24T20:11:26.456Z,2.17
2022-09-24T20:13:55.748Z,2.38
2022-09-24T20:16:26.167Z,2.28
2022-09-24T20:18:57.608Z,2.30
2022-09-24T20:21:27.653Z,2.13
2022-09-24T20:23:56.477Z,1.88
2022-09-24T20:26:42.818Z,1.90
2022-09-24T20:29:12.004Z,2.05
2022-09-24T20:31:51.844Z,2.13
2022-09-24T20:34:25.006Z,2.10
2022-09-24T20:36:52.357Z,2.35
2022-09-24T20:39:19.449Z,2.13
2022-09-24T20:41:46.682Z,2.00
2022-09-24T20:44:13.897Z,2.10
2022-09-24T20:46:40.822Z,2.00
2022-09-24T20:49:07.785Z,1.92
2022-09-24T20:51:34.587Z,2.10
2022-09-24T20:54:04.562Z,2.15
2022-09-24T20:56:31.422Z,2.10
2022-09-24T20:58:58.546Z,2.20
2022-09-24T21:01:25.455Z,1.90
2022-09-24T21:03:53.108Z,2.17
2022-09-24T21:06:23.074Z,1.98
2022-09-24T21:08:57.851Z,2.10
2022-09-24T21:11:44.826Z,2.00
2022-09-24T21:14:20.108Z,1.90
2022-09-24T21:16:47.375Z,1.95
2022-09-24T21:19:15.492Z,1.88
2022-09-24T21:21:42.653Z,1.90
2022-09-24T21:24:13.709Z,2.20
2022-09-24T21:26:41.461Z,1.90
2022-09-24T21:29:22.754Z,1.95
2022-09-24T21:31:50.103Z,1.95
2022-09-24T21:34:22.938Z,1.98
2022-09-24T21:36:49.707Z,2.20
2022-09-24T21:39:23.062Z,1.88
2022-09-24T21:41:53.106Z,2.13
2022-09-24T21:44:21.419Z,1.95
2022-09-24T21:46:52.081Z,2.08
2022-09-24T21:49:19.888Z,1.98
2022-09-24T21:51:47.078Z,2.20
2022-09-24T21:54:17.581Z,1.98
2022-09-24T21:56:45.402Z,1.98
2022-09-24T21:59:31.107Z,1.90
2022-09-24T22:02:02.968Z,2.00
2022-09-24T22:04:31.898Z,2.25
2022-09-24T22:06:58.910Z,2.20
2022-09-24T22:09:27.416Z,2.40
2022-09-24T22:11:59.008Z,2.30
2022-09-24T22:14:26.099Z,2.30
2022-09-24T22:16:53.222Z,2.40
2022-09-24T22:19:20.059Z,2.10
2022-09-24T22:21:47.030Z,2.10
2022-09-24T22:24:15.517Z,2.20
2022-09-24T22:26:42.335Z,2.10
2022-09-24T22:29:09.191Z,2.28
2022-09-24T22:31:35.972Z,2.03
2022-09-24T22:34:21.508Z,2.25
2022-09-24T22:36:48.235Z,2.22
2022-09-24T22:39:15.541Z,2.40
2022-09-24T22:41:43.220Z,3.10
2022-09-24T22:44:11.910Z,2.70
2022-09-24T22:46:44.691Z,3.20
2022-09-24T22:49:17.770Z,3.58
2022-09-24T22:51:44.482Z,3.55
2022-09-24T22:54:12.211Z,3.30
2022-09-24T22:56:39.177Z,3.28
2022-09-24T22:59:06.329Z,3.00
2022-09-24T23:01:42.495Z,3.50
2022-09-24T23:04:15.076Z,3.10
2022-09-24T23:06:43.529Z,3.13
2022-09-24T23:09:25.095Z,3.33
2022-09-24T23:11:58.798Z,3.13
2022-09-24T23:14:25.665Z,2.80
2022-09-24T23:16:52.528Z,2.58
2022-09-24T23:19:20.322Z,2.80
2022-09-24T23:21:47.348Z,2.83
2022-09-24T23:24:19.688Z,2.65
2022-09-24T23:26:46.674Z,2.55
2022-09-24T23:29:14.208Z,2.38
2022-09-24T23:31:41.321Z,2.92
2022-09-24T23:34:09.065Z,2.70
2022-09-24T23:36:36.212Z,2.40
2022-09-24T23:39:04.953Z,2.75
2022-09-24T23:41:32.169Z,2.95
2022-09-24T23:44:00.094Z,3.00
2022-09-24T23:46:27.712Z,3.00
2022-09-24T23:48:55.603Z,3.20
2022-09-24T23:51:22.833Z,3.08
2022-09-24T23:53:49.765Z,3.30
2022-09-24T23:56:16.655Z,3.03
2022-09-24T23:58:43.468Z,3.08
